Time;durP1;ratioP1;P1;durP2;ratioP2;P2;SDS_P1;SDS_P2;PMS_P1;PMS_P2;Temp;Humidity;BMP_temperature;BMP_pressure;BME280_temperature;BME280_humidity;BME280_pressure;Samples;Min_cycle;Max_cycle;Signal;HPM_P1;HPM_P2
2024/01/15 00:02:16;;;;;;;99.57;36.95;;;;;;;-0.67;76.50;96727.75;5300466;27;20083;-83
2024/01/15 00:04:45;;;;;;;101.93;40.17;;;;;;;-0.25;72.81;96738.72;5301611;27;20081;-84
2024/01/15 00:07:13;;;;;;;104.90;42.75;;;;;;;-0.51;72.81;96721.53;5302054;27;20399;-84
2024/01/15 00:09:42;;;;;;;133.30;47.25;;;;;;;-0.91;74.86;96716.41;5302110;27;20140;-84
2024/01/15 00:12:11;;;;;;;130.30;48.63;;;;;;;-0.60;73.70;96712.41;5301673;27;20057;-84
2024/01/15 00:14:38;;;;;;;132.52;47.70;;;;;;;-0.65;73.70;96711.66;5302280;27;20528;-84
2024/01/15 00:17:06;;;;;;;96.22;36.47;;;;;;;-0.63;74.37;96709.97;5301628;27;20079;-82
2024/01/15 00:19:34;;;;;;;103.57;37.78;;;;;;;-1.54;77.50;96706.56;5302083;27;20059;-84
2024/01/15 00:22:01;;;;;;;94.35;36.22;;;;;;;-1.23;77.46;96705.16;5301990;27;20111;-84
2024/01/15 00:24:31;;;;;;;108.53;38.88;;;;;;;-1.18;77.98;96694.94;5302058;27;20115;-84
2024/01/15 00:27:00;;;;;;;117.72;42.92;;;;;;;-0.87;75.76;96695.22;5301954;27;20049;-84
2024/01/15 00:29:28;;;;;;;106.25;38.70;;;;;;;-1.22;78.16;96704.31;5302055;27;20048;-84
2024/01/15 00:31:58;;;;;;;97.05;35.20;;;;;;;-0.95;77.36;96695.38;5301619;27;20057;-84
2024/01/15 00:34:27;;;;;;;45.45;20.15;;;;;;;-1.31;78.07;96690.97;5302331;27;20077;-84
2024/01/15 00:36:55;;;;;;;80.15;32.08;;;;;;;-0.38;82.08;96689.19;5302094;27;20053;-84
2024/01/15 00:39:25;;;;;;;78.10;30.92;;;;;;;-0.50;78.84;96682.66;5301551;27;20052;-84
2024/01/15 00:41:54;;;;;;;61.95;24.05;;;;;;;-0.71;79.83;96683.94;5301963;27;20057;-84
2024/01/15 00:44:24;;;;;;;49.05;23.45;;;;;;;-0.26;78.11;96678.78;5302242;27;20072;-84
2024/01/15 00:46:52;;;;;;;47.10;19.50;;;;;;;-0.45;79.50;96675.78;5301271;27;20071;-84
2024/01/15 00:49:20;;;;;;;49.63;20.70;;;;;;;-0.25;79.89;96674.53;5301997;27;20052;-84
2024/01/15 00:51:49;;;;;;;49.53;19.02;;;;;;;0.38;77.73;96677.28;5302230;27;20061;-84
2024/01/15 00:54:19;;;;;;;44.60;18.75;;;;;;;0.11;80.41;96673.72;5301566;27;20071;-84
2024/01/15 00:56:47;;;;;;;42.88;18.17;;;;;;;0.40;79.71;96662.00;5301806;27;20053;-84
2024/01/15 00:59:15;;;;;;;42.70;17.42;;;;;;;0.52;80.23;96667.63;5301486;27;20331;-83
2024/01/15 01:01:45;;;;;;;37.63;15.23;;;;;;;0.51;81.06;96657.50;5302157;27;20471;-84
2024/01/15 01:04:14;;;;;;;36.08;16.77;;;;;;;0.46;81.18;96655.09;5301874;27;20068;-84
2024/01/15 01:06:43;;;;;;;36.67;16.02;;;;;;;0.54;80.96;96653.22;5301405;27;20060;-84
2024/01/15 01:09:12;;;;;;;37.28;16.48;;;;;;;0.41;81.61;96644.22;5301927;27;20049;-84
2024/01/15 01:11:41;;;;;;;40.28;17.52;;;;;;;0.46;80.97;96642.41;5301823;27;20067;-84
2024/01/15 01:14:11;;;;;;;39.60;16.85;;;;;;;0.89;80.40;96645.53;5301954;27;20093;-84
2024/01/15 01:16:39;;;;;;;42.85;18.23;;;;;;;0.61;80.17;96642.88;5301675;27;20435;-84
2024/01/15 01:19:07;;;;;;;42.45;19.08;;;;;;;0.93;80.72;96652.19;5301866;27;20052;-84
2024/01/15 01:21:36;;;;;;;41.63;18.10;;;;;;;-0.28;85.81;96639.97;5301643;27;20423;-84
2024/01/15 01:24:06;;;;;;;39.95;18.42;;;;;;;-0.31;87.39;96643.41;5301843;27;20057;-84
2024/01/15 01:26:35;;;;;;;43.17;19.25;;;;;;;-0.05;87.35;96635.19;5302117;27;20079;-84
2024/01/15 01:29:03;;;;;;;39.80;18.00;;;;;;;0.35;85.80;96633.41;5301553;27;20438;-84
2024/01/15 01:31:31;;;;;;;41.10;17.10;;;;;;;0.74;83.11;96637.44;5301940;27;20380;-84
2024/01/15 01:34:00;;;;;;;43.13;18.87;;;;;;;-0.64;88.24;96633.97;5301887;27;20132;-84
2024/01/15 01:36:28;;;;;;;41.50;17.95;;;;;;;-0.18;87.84;96631.28;5301394;27;20052;-84
2024/01/15 01:38:57;;;;;;;45.22;20.17;;;;;;;-0.17;88.28;96614.38;5301691;27;20052;-84
2024/01/15 01:41:25;;;;;;;45.05;18.52;;;;;;;-0.99;91.10;96611.91;5301366;27;20462;-84
2024/01/15 01:43:53;;;;;;;48.28;20.35;;;;;;;-0.28;89.94;96609.53;5301624;27;20057;-84
2024/01/15 01:46:24;;;;;;;47.67;19.20;;;;;;;-0.20;89.62;96596.69;5302561;27;20087;-84
2024/01/15 01:48:52;;;;;;;43.55;19.40;;;;;;;-0.11;87.35;96589.69;5301087;27;20063;-84
2024/01/15 01:51:23;;;;;;;45.83;18.77;;;;;;;-0.17;87.93;96587.31;5301701;27;20061;-84
2024/01/15 01:53:51;;;;;;;43.22;19.62;;;;;;;0.00;87.19;96581.84;5300383;27;20140;-84
2024/01/15 01:56:19;;;;;;;48.40;19.30;;;;;;;-0.40;88.24;96587.84;5301478;27;20068;-84
2024/01/15 01:58:48;;;;;;;46.10;20.20;;;;;;;-0.32;88.64;96578.37;5300215;27;20440;-84
2024/01/15 02:01:18;;;;;;;47.03;20.30;;;;;;;-0.28;89.43;96575.75;5301441;27;20077;-84
2024/01/15 02:03:47;;;;;;;44.85;21.02;;;;;;;-0.51;90.10;96586.44;5299554;27;20408;-84
2024/01/15 02:06:15;;;;;;;50.65;21.33;;;;;;;-0.05;88.94;96573.50;5301477;27;20143;-84
2024/01/15 02:08:44;;;;;;;48.33;20.45;;;;;;;0.55;84.52;96565.22;5301778;27;20327;-84
2024/01/15 02:11:11;;;;;;;48.40;21.52;;;;;;;-0.03;87.37;96564.16;5300782;27;20089;-84
2024/01/15 02:13:39;;;;;;;44.80;20.02;;;;;;;0.49;86.30;96556.03;5302514;27;20445;-84
2024/01/15 02:16:08;;;;;;;46.35;20.62;;;;;;;-0.03;87.63;96538.78;5302601;27;20072;-84
2024/01/15 02:18:42;;;;;;;48.40;20.00;;;;;;;0.80;85.41;96539.97;5302629;27;20411;-84
2024/01/15 02:21:11;;;;;;;41.90;19.10;;;;;;;1.01;83.42;96533.44;5302567;27;20343;-84
2024/01/15 02:23:39;;;;;;;43.67;19.08;;;;;;;0.16;86.82;96539.16;5302065;27;20088;-84
2024/01/15 02:26:08;;;;;;;41.25;17.98;;;;;;;0.16;86.61;96546.78;5302342;27;20049;-84
2024/01/15 02:28:37;;;;;;;44.55;19.42;;;;;;;-0.40;89.87;96554.91;5302730;27;20053;-84
2024/01/15 02:31:05;;;;;;;40.45;18.85;;;;;;;0.18;86.56;96555.16;5302002;27;20132;-84
2024/01/15 02:33:34;;;;;;;46.72;20.30;;;;;;;0.12;87.34;96543.50;5302624;27;20076;-84
2024/01/15 02:36:04;;;;;;;43.30;20.40;;;;;;;0.60;85.33;96532.06;5302531;27;20432;-84
2024/01/15 02:38:33;;;;;;;43.55;20.17;;;;;;;0.52;85.07;96522.12;5302247;27;20041;-84
2024/01/15 02:41:03;;;;;;;46.50;19.95;;;;;;;0.57;84.43;96513.53;5302594;27;20086;-84
2024/01/15 02:43:31;;;;;;;46.37;19.95;;;;;;;0.51;84.35;96507.78;5302452;27;20078;-84
2024/01/15 02:45:59;;;;;;;43.13;20.00;;;;;;;0.48;84.00;96518.84;5301942;27;20073;-84
2024/01/15 02:48:27;;;;;;;43.95;18.87;;;;;;;0.47;83.35;96519.72;5302355;27;20060;-84
2024/01/15 02:50:57;;;;;;;46.83;20.23;;;;;;;0.15;84.13;96518.03;5302961;27;20112;-84
2024/01/15 02:53:24;;;;;;;44.25;19.30;;;;;;;-0.17;86.51;96507.91;5302005;27;20103;-84
2024/01/15 02:55:52;;;;;;;43.42;17.80;;;;;;;-0.27;86.66;96498.84;5300827;27;20064;-84
2024/01/15 02:58:21;;;;;;;48.58;20.58;;;;;;;-0.04;85.74;96501.63;5302531;27;20049;-84
2024/01/15 03:00:50;;;;;;;51.72;21.02;;;;;;;0.02;87.62;96501.50;5301866;27;20080;-84
2024/01/15 03:03:19;;;;;;;48.55;21.15;;;;;;;0.03;89.42;96503.16;5302365;27;20061;-84
2024/01/15 03:05:48;;;;;;;48.90;20.70;;;;;;;0.02;90.57;96495.59;5300500;27;20079;-85
2024/01/15 03:08:17;;;;;;;51.55;22.17;;;;;;;0.09;90.67;96497.06;5302436;27;20049;-84
2024/01/15 03:10:44;;;;;;;47.05;20.80;;;;;;;0.10;91.84;96504.63;5302340;27;20111;-84
2024/01/15 03:13:12;;;;;;;50.58;20.42;;;;;;;0.21;91.16;96497.59;5302349;27;20065;-84
2024/01/15 03:15:40;;;;;;;51.08;21.50;;;;;;;0.04;91.49;96489.59;5302155;27;20053;-84
2024/01/15 03:18:08;;;;;;;48.72;22.02;;;;;;;0.37;90.81;96503.09;5302341;27;20125;-84
2024/01/15 03:20:36;;;;;;;46.88;22.05;;;;;;;0.43;90.98;96507.19;5301731;27;20459;-84
2024/01/15 03:23:04;;;;;;;47.90;21.58;;;;;;;0.38;91.50;96502.22;5302222;27;20082;-84
2024/01/15 03:25:31;;;;;;;49.58;21.05;;;;;;;0.01;92.93;96504.06;5302065;27;20068;-84
2024/01/15 03:27:59;;;;;;;52.75;21.75;;;;;;;-0.01;92.85;96499.84;5302225;27;20060;-84
2024/01/15 03:30:27;;;;;;;46.80;21.62;;;;;;;0.31;89.43;96489.72;5302254;27;20453;-84
2024/01/15 03:32:57;;;;;;;52.75;22.70;;;;;;;0.41;88.62;96486.91;5302689;27;20060;-84
2024/01/15 03:35:29;;;;;;;52.58;21.42;;;;;;;0.43;89.62;96480.09;5301864;27;20431;-84
2024/01/15 03:37:58;;;;;;;54.35;23.08;;;;;;;0.64;88.77;96498.09;5302360;27;20128;-84
2024/01/15 03:40:26;;;;;;;54.00;22.05;;;;;;;0.68;89.12;96497.16;5302163;27;20057;-84
2024/01/15 03:42:54;;;;;;;52.08;22.17;;;;;;;0.53;89.57;96486.59;5301907;27;20053;-84
2024/01/15 03:45:24;;;;;;;52.95;23.70;;;;;;;0.36;91.66;96487.91;5302528;27;20072;-84
2024/01/15 03:47:52;;;;;;;47.85;21.83;;;;;;;0.62;89.94;96479.56;5301759;27;20060;-84
2024/01/15 03:50:20;;;;;;;48.97;21.20;;;;;;;0.66;89.23;96488.78;5302209;27;20383;-84
2024/01/15 03:52:49;;;;;;;53.28;22.48;;;;;;;0.95;87.12;96491.28;5300975;27;20057;-84
2024/01/15 03:55:18;;;;;;;48.67;21.73;;;;;;;0.78;87.50;96479.09;5301786;27;20111;-84
2024/01/15 03:57:46;;;;;;;49.00;22.08;;;;;;;0.69;87.97;96463.28;5302737;27;20055;-84
2024/01/15 04:00:17;;;;;;;50.03;21.77;;;;;;;0.47;90.23;96463.06;5302186;27;20057;-84
2024/01/15 04:02:46;;;;;;;56.70;24.20;;;;;;;0.28;93.97;96461.03;5301697;27;20071;-84
2024/01/15 04:05:16;;;;;;;58.28;25.75;;;;;;;0.57;96.80;96467.00;5302098;27;20109;-84
2024/01/15 04:07:45;;;;;;;55.03;24.33;;;;;;;0.32;100.00;96469.41;5301594;27;20100;-84
2024/01/15 04:10:12;;;;;;;51.95;24.33;;;;;;;0.45;100.00;96467.38;5302700;27;20071;-84
2024/01/15 04:12:40;;;;;;;65.30;26.42;;;;;;;0.68;100.00;96454.84;5303150;27;20426;-84
2024/01/15 04:15:09;;;;;;;58.53;26.08;;;;;;;1.03;100.00;96456.31;5303143;27;20057;-84
2024/01/15 04:17:37;;;;;;;61.70;27.17;;;;;;;1.16;100.00;96457.59;5303546;27;20057;-84
2024/01/15 04:20:06;;;;;;;56.33;26.12;;;;;;;1.40;99.19;96460.28;5296768;27;172339;-82
2024/01/15 04:22:35;;;;;;;56.15;25.00;;;;;;;1.39;98.87;96466.25;5303253;27;20123;-84
2024/01/15 04:25:05;;;;;;;58.10;25.42;;;;;;;1.47;98.31;96476.16;5302563;27;20060;-84
2024/01/15 04:27:33;;;;;;;53.72;24.48;;;;;;;1.66;97.29;96472.13;5303683;27;20529;-84
2024/01/15 04:30:04;;;;;;;53.58;24.02;;;;;;;1.68;96.34;96468.66;5303253;27;20062;-84
2024/01/15 04:32:32;;;;;;;55.00;22.85;;;;;;;1.64;95.04;96464.56;5303025;27;20061;-84
2024/01/15 04:34:59;;;;;;;56.80;24.50;;;;;;;1.19;92.65;96468.56;5303047;27;20057;-84
2024/01/15 04:37:27;;;;;;;51.47;24.02;;;;;;;1.13;93.68;96465.34;5303970;27;20399;-84
2024/01/15 04:39:57;;;;;;;52.22;23.58;;;;;;;1.10;94.78;96474.75;5303311;27;20061;-84
2024/01/15 04:42:26;;;;;;;57.50;24.20;;;;;;;1.54;94.65;96480.16;5303408;27;20057;-84
2024/01/15 04:44:53;;;;;;;53.05;22.67;;;;;;;1.61;95.25;96474.84;5303047;27;20045;-84
2024/01/15 04:47:22;;;;;;;54.03;24.75;;;;;;;1.97;93.32;96471.97;5303371;27;20071;-84
2024/01/15 04:49:51;;;;;;;53.85;25.08;;;;;;;2.05;91.69;96479.34;5303367;27;20064;-84
2024/01/15 04:52:20;;;;;;;57.92;24.73;;;;;;;1.96;91.66;96466.03;5302667;27;20404;-84
2024/01/15 04:54:48;;;;;;;56.97;25.88;;;;;;;2.01;91.72;96474.31;5302955;27;20107;-84
2024/01/15 04:57:16;;;;;;;57.58;26.23;;;;;;;2.67;87.79;96473.75;5302681;27;20049;-84
2024/01/15 04:59:45;;;;;;;55.17;25.10;;;;;;;2.90;84.95;96477.09;5302186;27;20061;-84
2024/01/15 05:02:15;;;;;;;46.42;22.77;;;;;;;2.84;82.98;96477.31;5303624;27;20072;-84
2024/01/15 05:04:43;;;;;;;46.08;21.10;;;;;;;2.04;86.80;96481.06;5303129;27;20053;-84
2024/01/15 05:07:12;;;;;;;50.70;23.00;;;;;;;1.76;88.00;96488.75;5302708;27;20407;-84
2024/01/15 05:09:40;;;;;;;42.95;18.33;;;;;;;2.00;85.18;96477.75;5303204;27;20062;-84
2024/01/15 05:12:08;;;;;;;46.10;20.88;;;;;;;1.19;87.20;96482.09;5303162;27;20053;-84
2024/01/15 05:14:38;;;;;;;51.08;21.23;;;;;;;1.40;89.25;96488.25;5305071;27;20039;-84
2024/01/15 05:17:08;;;;;;;47.53;20.67;;;;;;;1.20;90.48;96498.19;5303568;27;20370;-84
2024/01/15 05:19:37;;;;;;;42.53;20.25;;;;;;;1.40;90.52;96506.03;5303169;27;20053;-84
2024/01/15 05:22:05;;;;;;;48.08;21.73;;;;;;;1.10;91.80;96516.22;5304250;27;20069;-84
2024/01/15 05:24:33;;;;;;;43.47;19.70;;;;;;;0.60;94.29;96517.69;5303977;27;20069;-84
2024/01/15 05:27:03;;;;;;;43.53;20.45;;;;;;;0.63;93.80;96517.59;5303257;27;20056;-84
2024/01/15 05:29:31;;;;;;;38.17;17.75;;;;;;;0.63;92.85;96515.03;5303220;27;20069;-84
2024/01/15 05:31:59;;;;;;;46.08;18.08;;;;;;;0.56;93.47;96511.03;5303374;27;20081;-84
2024/01/15 05:34:28;;;;;;;49.88;21.65;;;;;;;0.78;92.83;96506.19;5302928;27;20046;-84
2024/01/15 05:36:57;;;;;;;44.33;19.52;;;;;;;0.52;95.37;96505.19;5303153;27;20044;-84
2024/01/15 05:39:25;;;;;;;45.03;20.98;;;;;;;0.68;95.41;96490.38;5303092;27;20065;-84
2024/01/15 05:41:55;;;;;;;54.78;24.58;;;;;;;1.48;91.04;96493.88;5302901;27;20065;-84
2024/01/15 05:44:23;;;;;;;50.20;21.25;;;;;;;1.97;87.14;96489.75;5303373;27;20060;-84
2024/01/15 05:46:53;;;;;;;46.88;20.62;;;;;;;2.03;84.64;96498.03;5303658;27;20135;-83
2024/01/15 05:49:22;;;;;;;46.75;20.37;;;;;;;1.82;84.80;96495.37;5304427;27;20087;-84
2024/01/15 05:51:51;;;;;;;44.65;20.62;;;;;;;1.46;85.31;96495.66;5304320;27;20450;-84
2024/01/15 05:54:20;;;;;;;51.55;21.83;;;;;;;1.90;84.71;96498.47;5304391;27;20396;-84
2024/01/15 05:56:48;;;;;;;75.53;31.33;;;;;;;1.63;85.72;96507.84;5303981;27;20049;-84
2024/01/15 05:59:18;;;;;;;84.18;34.78;;;;;;;1.78;85.54;96498.88;5303909;27;20096;-84
2024/01/15 06:01:46;;;;;;;87.70;34.83;;;;;;;1.43;86.90;96496.59;5304200;27;20093;-84
2024/01/15 06:04:15;;;;;;;79.22;32.53;;;;;;;1.55;86.77;96489.44;5304110;27;20049;-84
2024/01/15 06:06:42;;;;;;;86.18;36.03;;;;;;;1.15;90.18;96480.53;5304850;27;20045;-84
2024/01/15 06:09:10;;;;;;;90.10;37.42;;;;;;;1.56;89.73;96475.84;5302906;27;20127;-84
2024/01/15 06:11:38;;;;;;;72.95;30.40;;;;;;;1.51;88.97;96462.47;5304827;27;20107;-84
2024/01/15 06:14:07;;;;;;;61.10;29.58;;;;;;;1.77;87.86;96469.25;5306510;27;20050;-84
2024/01/15 06:16:36;;;;;;;65.10;27.87;;;;;;;1.14;95.64;96481.41;5304374;27;20063;-84
2024/01/15 06:19:03;;;;;;;70.32;29.27;;;;;;;1.93;91.65;96480.59;5305213;27;20060;-84
2024/01/15 06:21:32;;;;;;;58.33;26.87;;;;;;;2.32;88.11;96488.53;5305214;27;20481;-84
2024/01/15 06:23:59;;;;;;;56.67;25.52;;;;;;;1.87;89.07;96485.88;5305313;27;20053;-84
2024/01/15 06:26:28;;;;;;;65.87;29.90;;;;;;;2.90;83.56;96492.38;5306099;27;20063;-83
2024/01/15 06:28:56;;;;;;;69.03;30.27;;;;;;;2.53;85.36;96494.59;5305051;27;20408;-84
2024/01/15 06:31:24;;;;;;;75.28;30.92;;;;;;;2.70;84.12;96506.75;5304526;27;20455;-84
2024/01/15 06:33:51;;;;;;;74.00;27.92;;;;;;;2.19;84.39;96502.59;5304215;27;20075;-84
2024/01/15 06:36:19;;;;;;;70.07;30.73;;;;;;;1.66;85.41;96512.81;5303956;27;20049;-84
2024/01/15 06:38:48;;;;;;;70.25;29.48;;;;;;;0.71;89.79;96512.31;5304177;27;20681;-84
2024/01/15 06:41:16;;;;;;;66.28;27.67;;;;;;;1.11;89.39;96517.91;5305374;27;20081;-84
2024/01/15 06:43:43;;;;;;;59.83;25.17;;;;;;;1.83;85.26;96523.28;5308252;27;20113;-84
2024/01/15 06:46:12;;;;;;;51.67;22.52;;;;;;;2.02;84.20;96520.94;5314614;27;20052;-84
2024/01/15 06:48:42;;;;;;;58.38;25.75;;;;;;;1.52;85.33;96545.47;5305136;27;20065;-86
2024/01/15 06:51:11;;;;;;;68.68;27.55;;;;;;;1.31;88.90;96552.03;5303205;27;20391;-86
2024/01/15 06:53:38;;;;;;;59.83;26.33;;;;;;;1.50;88.21;96552.31;5303327;27;20053;-86
2024/01/15 06:56:06;;;;;;;61.65;26.50;;;;;;;2.25;85.34;96571.09;5305596;27;20447;-85
2024/01/15 06:58:34;;;;;;;65.12;26.55;;;;;;;2.17;85.67;96561.16;5303955;27;20124;-85
2024/01/15 07:01:02;;;;;;;58.63;25.55;;;;;;;2.37;85.79;96562.22;5306119;27;20054;-85
2024/01/15 07:03:30;;;;;;;57.47;24.30;;;;;;;2.50;85.73;96559.19;5303756;27;20498;-85
2024/01/15 07:05:59;;;;;;;56.58;24.67;;;;;;;2.75;85.20;96560.88;5301839;27;20052;-85
2024/01/15 07:08:26;;;;;;;49.42;23.60;;;;;;;3.36;80.70;96571.37;5302811;27;20074;-85
2024/01/15 07:10:56;;;;;;;56.13;23.95;;;;;;;3.38;78.48;96590.84;5302487;27;20061;-86
2024/01/15 07:13:25;;;;;;;57.17;25.98;;;;;;;3.40;79.75;96583.12;5303433;27;20333;-85
2024/01/15 07:15:53;;;;;;;54.83;25.90;;;;;;;3.11;82.21;96585.06;5302851;27;20615;-84
2024/01/15 07:18:21;;;;;;;56.40;25.58;;;;;;;3.77;80.20;96580.84;5303231;27;20415;-84
2024/01/15 07:20:50;;;;;;;51.72;24.55;;;;;;;3.77;86.10;96577.44;5303400;27;20054;-84
2024/01/15 07:23:17;;;;;;;52.42;24.85;;;;;;;4.83;80.69;96584.97;5305701;27;20057;-85
2024/01/15 07:25:46;;;;;;;54.17;24.27;;;;;;;5.72;75.86;96591.22;5301684;27;20107;-85
2024/01/15 07:28:14;;;;;;;44.72;21.15;;;;;;;6.32;70.05;96590.06;5302165;27;20115;-85
2024/01/15 07:30:43;;;;;;;42.97;20.25;;;;;;;7.26;66.23;96591.28;5302272;27;20057;-86
2024/01/15 07:33:12;;;;;;;38.05;17.15;;;;;;;7.51;62.39;96590.78;5301026;27;20053;-86
2024/01/15 07:35:39;;;;;;;29.30;13.00;;;;;;;6.01;61.87;96580.47;5305996;27;20044;-85
2024/01/15 07:38:09;;;;;;;28.00;12.35;;;;;;;4.98;64.47;96590.31;5305388;27;20087;-82
2024/01/15 07:40:36;;;;;;;24.30;11.40;;;;;;;5.41;61.58;96584.13;5304133;27;20096;-81
2024/01/15 07:43:04;;;;;;;23.83;10.52;;;;;;;4.30;63.43;96588.06;5304461;27;20053;-84
2024/01/15 07:45:32;;;;;;;21.00;9.40;;;;;;;4.43;62.93;96590.09;5304432;27;20102;-84
2024/01/15 07:48:00;;;;;;;20.02;9.23;;;;;;;3.81;63.94;96589.19;5302333;27;20060;-84
2024/01/15 07:50:31;;;;;;;21.73;9.20;;;;;;;3.83;62.95;96586.56;5301281;27;20119;-84
2024/01/15 07:52:59;;;;;;;22.52;8.88;;;;;;;3.87;63.39;96598.34;5303071;27;20485;-84
2024/01/15 07:55:27;;;;;;;20.60;8.73;;;;;;;4.14;62.54;96604.06;5302562;27;20048;-84
2024/01/15 07:57:58;;;;;;;18.20;7.93;;;;;;;3.82;62.96;96597.66;5302584;27;20449;-85
2024/01/15 08:00:41;;;;;;;16.67;6.95;;;;;;;3.37;63.13;96598.53;5303209;27;20119;-84
2024/01/15 08:03:09;;;;;;;21.85;7.82;;;;;;;3.89;63.92;96610.13;5302146;27;20057;-85
2024/01/15 08:05:37;;;;;;;17.05;7.35;;;;;;;5.07;59.98;96613.75;5303799;27;20056;-85
2024/01/15 08:08:05;;;;;;;15.77;6.65;;;;;;;5.67;56.52;96611.91;5303636;27;20120;-85
2024/01/15 08:10:32;;;;;;;14.50;5.72;;;;;;;5.74;54.88;96603.06;5305385;27;20030;-87
2024/01/15 08:13:00;;;;;;;14.60;6.12;;;;;;;7.08;52.25;96607.63;5304113;27;20366;-88
2024/01/15 08:15:28;;;;;;;13.13;5.07;;;;;;;7.51;51.08;96617.28;5306282;27;20040;-87
2024/01/15 08:17:58;;;;;;;14.55;5.40;;;;;;;8.50;48.39;96610.97;5307954;27;20068;-86
2024/01/15 08:20:25;;;;;;;16.10;6.03;;;;;;;8.59;47.94;96612.22;5302075;27;20128;-88
2024/01/15 08:22:53;;;;;;;14.05;5.25;;;;;;;8.19;48.82;96611.03;5302211;27;20050;-87
2024/01/15 08:25:23;;;;;;;14.23;5.30;;;;;;;8.32;47.98;96612.84;5301750;27;20127;-87
2024/01/15 08:27:51;;;;;;;12.82;4.82;;;;;;;8.31;46.41;96616.34;5300630;27;20107;-86
2024/01/15 08:30:20;;;;;;;10.95;4.30;;;;;;;8.69;46.87;96626.19;5302190;27;20064;-87
2024/01/15 08:32:48;;;;;;;12.00;3.97;;;;;;;9.70;44.90;96625.31;5302062;27;20053;-86
2024/01/15 08:35:22;;;;;;;12.52;4.80;;;;;;;9.98;42.95;96616.69;5300854;27;20064;-85
2024/01/15 08:37:51;;;;;;;11.02;4.20;;;;;;;10.34;42.68;96619.53;5304822;27;20072;-85
2024/01/15 08:40:20;;;;;;;9.88;3.97;;;;;;;10.73;41.07;96617.84;5303062;27;20096;-85
2024/01/15 08:42:49;;;;;;;11.75;4.10;;;;;;;10.25;41.46;96619.28;5304107;27;20056;-86
2024/01/15 08:45:19;;;;;;;10.60;4.30;;;;;;;8.85;42.67;96613.28;5305794;27;20069;-86
2024/01/15 08:47:48;;;;;;;11.85;4.53;;;;;;;7.95;45.18;96602.97;5302847;27;20097;-86
2024/01/15 08:50:18;;;;;;;10.75;4.30;;;;;;;8.01;45.73;96593.19;5304814;27;20443;-87
2024/01/15 08:52:46;;;;;;;10.45;3.80;;;;;;;8.03;45.91;96603.38;5302895;27;20067;-87
2024/01/15 08:55:16;;;;;;;10.70;3.80;;;;;;;7.74;45.25;96604.94;5301930;27;20067;-87
2024/01/15 08:57:45;;;;;;;11.25;4.28;;;;;;;8.45;44.34;96589.03;5301966;27;20065;-87
2024/01/15 09:00:15;;;;;;;10.95;3.62;;;;;;;8.18;44.21;96586.25;5303487;27;20679;-87
2024/01/15 09:02:43;;;;;;;10.50;3.78;;;;;;;7.27;44.23;96587.81;5283555;27;20103;-87
2024/01/15 09:05:11;;;;;;;10.13;3.42;;;;;;;7.68;43.75;96583.03;5307444;27;20053;-87
2024/01/15 09:07:39;;;;;;;25.45;10.45;;;;;;;8.06;42.81;96585.22;5302721;27;20081;-87
2024/01/15 09:10:09;;;;;;;14.02;3.87;;;;;;;8.24;42.80;96580.78;5306372;27;20070;-86
2024/01/15 09:12:38;;;;;;;19.70;5.60;;;;;;;7.81;42.69;96580.63;5307637;27;20040;-85
2024/01/15 09:15:06;;;;;;;11.60;4.53;;;;;;;7.93;42.05;96582.50;5310318;27;20045;-89
2024/01/15 09:17:34;;;;;;;10.45;3.85;;;;;;;7.62;41.75;96582.53;5305961;27;20069;-89
2024/01/15 09:20:04;;;;;;;11.35;3.70;;;;;;;7.99;42.47;96586.47;5309569;27;20141;-87
2024/01/15 09:25:12;;;;;;;7.87;3.03;;;;;;;7.84;41.24;96590.69;5269252;27;20069;-88
2024/01/15 09:27:42;;;;;;;9.38;3.22;;;;;;;7.52;41.51;96533.41;5316052;26;20021;-89
2024/01/15 09:30:09;;;;;;;8.02;2.80;;;;;;;7.28;41.47;96517.63;5278316;27;20472;-88
2024/01/15 09:32:38;;;;;;;10.40;3.15;;;;;;;7.40;40.58;96562.31;5315523;27;20032;-88
2024/01/15 09:35:08;;;;;;;9.27;2.97;;;;;;;8.04;40.06;96531.34;5316787;27;20397;-85
2024/01/15 09:37:35;;;;;;;9.02;3.00;;;;;;;8.47;40.62;96556.37;5312133;27;20141;-84
2024/01/15 09:40:14;;;;;;;8.20;3.20;;;;;;;8.45;38.71;96558.19;5313797;27;20046;-89
2024/01/15 09:42:44;;;;;;;8.68;2.90;;;;;;;8.76;38.14;96546.97;5316255;26;20052;-87
2024/01/15 09:45:12;;;;;;;10.13;2.95;;;;;;;8.64;38.04;96551.91;5300365;27;20048;-84
2024/01/15 09:47:42;;;;;;;8.15;2.70;;;;;;;8.42;37.67;96559.22;5314988;27;20029;-85
2024/01/15 09:50:14;;;;;;;7.57;2.92;;;;;;;8.31;38.73;96539.25;5319005;27;20029;-88
2024/01/15 09:52:57;;;;;;;8.93;3.00;;;;;;;8.49;37.67;96545.06;5300237;27;20057;-90
2024/01/15 09:55:30;;;;;;;7.13;2.67;;;;;;;8.23;38.71;96544.00;5296770;27;20033;-90
2024/01/15 09:58:00;;;;;;;7.10;2.55;;;;;;;8.69;37.38;96538.75;5290969;27;20203;-85
2024/01/15 10:00:29;;;;;;;7.10;2.53;;;;;;;8.62;37.48;96538.31;5308640;27;20140;-87
2024/01/15 10:02:57;;;;;;;6.85;2.70;;;;;;;8.38;36.72;96532.03;5306045;27;20118;-86
2024/01/15 10:05:25;;;;;;;7.05;2.40;;;;;;;8.26;37.41;96523.25;5303745;27;20056;-87
2024/01/15 10:07:55;;;;;;;7.50;2.37;;;;;;;8.03;37.85;96514.28;5306754;27;20074;-87
2024/01/15 10:10:22;;;;;;;6.68;2.40;;;;;;;8.84;36.99;96521.62;5291710;27;20029;-86
2024/01/15 10:12:52;;;;;;;4.80;2.10;;;;;;;9.56;35.37;96511.09;5314732;27;20025;-85
2024/01/15 10:15:23;;;;;;;9.05;2.33;;;;;;;9.42;35.00;96513.72;5310177;27;20115;-87
2024/01/15 10:17:51;;;;;;;4.70;1.90;;;;;;;9.22;34.93;96517.53;5313073;27;20055;-86
2024/01/15 10:20:22;;;;;;;6.72;2.17;;;;;;;9.05;34.63;96506.62;5308886;27;20044;-86
2024/01/15 10:22:50;;;;;;;5.93;2.10;;;;;;;9.39;35.38;96506.19;5304658;27;20045;-85
2024/01/15 10:25:24;;;;;;;6.70;1.92;;;;;;;9.49;34.71;96511.59;5294890;27;20064;-79
2024/01/15 10:28:02;;;;;;;3.92;1.58;;;;;;;10.05;33.04;96507.97;5307192;27;20131;-83
2024/01/15 10:30:34;;;;;;;5.40;1.90;;;;;;;9.88;32.74;96485.03;5292364;27;20115;-83
2024/01/15 10:33:04;;;;;;;3.72;1.50;;;;;;;10.09;33.29;96495.69;5306259;27;20053;-84
2024/01/15 10:35:34;;;;;;;4.07;1.50;;;;;;;10.28;32.05;96487.63;5315471;27;20049;-83
2024/01/15 10:38:02;;;;;;;3.87;1.35;;;;;;;9.33;33.59;96485.16;5316334;27;20026;-85
2024/01/15 10:40:32;;;;;;;2.83;1.23;;;;;;;9.75;33.62;96486.75;5303638;27;20415;-82
2024/01/15 10:42:59;;;;;;;3.62;1.37;;;;;;;9.30;32.11;96483.59;5301977;27;20057;-79
2024/01/15 10:45:29;;;;;;;2.80;1.30;;;;;;;9.38;32.69;96488.28;5283157;27;20057;-80
2024/01/15 10:47:58;;;;;;;4.05;1.20;;;;;;;9.93;32.08;96483.00;5302196;27;20061;-79
2024/01/15 10:50:28;;;;;;;2.83;1.10;;;;;;;9.70;32.53;96489.63;5302117;27;20065;-79
2024/01/15 10:52:57;;;;;;;1.87;1.10;;;;;;;9.51;32.55;96481.44;5301614;27;20537;-79
2024/01/15 10:55:25;;;;;;;3.20;1.20;;;;;;;9.10;32.32;96478.84;5302297;27;20064;-79
2024/01/15 10:57:56;;;;;;;4.28;1.30;;;;;;;9.46;32.46;96479.16;5282813;27;20407;-79
2024/01/15 11:00:25;;;;;;;2.45;1.10;;;;;;;9.80;31.58;96482.16;5302439;27;20071;-79
2024/01/15 11:02:57;;;;;;;2.37;1.20;;;;;;;10.23;31.19;96474.22;5301983;27;20048;-80
2024/01/15 11:05:25;;;;;;;1.50;0.90;;;;;;;10.31;31.22;96483.09;5302181;27;20058;-79
2024/01/15 11:08:00;;;;;;;2.50;1.27;;;;;;;9.89;30.33;96465.25;5302290;27;20075;-80
2024/01/15 11:10:42;;;;;;;1.95;0.90;;;;;;;10.04;30.91;96472.00;5283156;27;20805;-80
2024/01/15 11:13:20;;;;;;;3.17;1.00;;;;;;;8.82;33.11;96472.00;5303400;27;20057;-83
2024/01/15 11:16:05;;;;;;;4.07;1.80;;;;;;;8.55;33.56;96475.31;5305003;27;20060;-83
2024/01/15 11:18:39;;;;;;;3.25;1.10;;;;;;;8.86;33.11;96482.03;5302985;27;20511;-83
2024/01/15 11:21:15;;;;;;;2.58;1.10;;;;;;;8.31;33.65;96474.19;5284934;27;20064;-83
2024/01/15 11:23:49;;;;;;;4.85;1.30;;;;;;;8.55;33.87;96472.75;5302425;27;20088;-82
2024/01/15 11:26:46;;;;;;;3.70;1.20;;;;;;;8.55;32.84;96467.59;5302450;27;20051;-83
2024/01/15 11:29:29;;;;;;;1.98;1.20;;;;;;;9.15;32.65;96459.66;5302638;27;20400;-82
2024/01/15 11:32:01;;;;;;;6.22;1.40;;;;;;;9.18;33.35;96459.47;5302293;27;20061;-80
2024/01/15 11:35:02;;;;;;;5.32;1.75;;;;;;;9.71;32.38;96456.97;5303064;27;20065;-79
2024/01/15 11:37:54;;;;;;;4.43;1.52;;;;;;;9.91;32.31;96448.78;5303004;27;20060;-81
2024/01/15 11:40:37;;;;;;;4.32;1.60;;;;;;;9.68;32.82;96441.75;5301933;27;20065;-80